Whittier, Iowa
Current Conditions -  °F | °C
As of 11:35 PM on Monday 26 Jan 2015 (Local Time) from KMXO Reporting Station
Haze Haze  
Wind Chill: 34°   Ceiling: 1500
Heat Index: 34°   Visibility: 6mi
Dew Point: 34°   Wind: 3mph
Humidity: 100%   Direction: 290°WNW
Pressure: 29.92"   Gusts: NA
Location:  42.0682°N, 91.4395°W
Report Text: KMXO 270535Z AUTO 29003KT 6SM BR OVC015 01/01 A2992 RMK AO2
Loading
Personal Weather Stations






























Interactive Weather Map New forecast layout! Learn more

10-Day Weather Forecast

Advertisements
Track Severe Weather on mobile